sensor_id;sensor_type;location;lat;lon;timestamp;P1;durP1;ratioP1;P2;durP2;ratioP2
34900;SDS011;21112;51.976;5.660;2023-09-18T00:00:48;19.17;;;8.27;;
34900;SDS011;21112;51.976;5.660;2023-09-18T00:03:16;16.00;;;8.23;;
34900;SDS011;21112;51.976;5.660;2023-09-18T00:05:42;14.50;;;8.27;;
34900;SDS011;21112;51.976;5.660;2023-09-18T00:08:11;16.42;;;8.05;;
34900;SDS011;21112;51.976;5.660;2023-09-18T00:10:37;15.35;;;8.13;;
34900;SDS011;21112;51.976;5.660;2023-09-18T00:13:04;15.43;;;7.40;;
34900;SDS011;21112;51.976;5.660;2023-09-18T00:15:31;14.38;;;7.93;;
34900;SDS011;21112;51.976;5.660;2023-09-18T00:17:57;15.23;;;7.53;;
34900;SDS011;21112;51.976;5.660;2023-09-18T00:20:24;16.77;;;7.78;;
34900;SDS011;21112;51.976;5.660;2023-09-18T00:22:52;14.63;;;7.87;;
34900;SDS011;21112;51.976;5.660;2023-09-18T00:25:20;25.38;;;8.77;;
34900;SDS011;21112;51.976;5.660;2023-09-18T00:27:46;13.55;;;7.65;;
34900;SDS011;21112;51.976;5.660;2023-09-18T00:30:13;19.70;;;8.55;;
34900;SDS011;21112;51.976;5.660;2023-09-18T00:32:40;17.17;;;8.82;;
34900;SDS011;21112;51.976;5.660;2023-09-18T00:35:07;16.05;;;8.00;;
34900;SDS011;21112;51.976;5.660;2023-09-18T00:37:33;23.90;;;8.32;;
34900;SDS011;21112;51.976;5.660;2023-09-18T00:40:01;21.40;;;9.32;;
34900;SDS011;21112;51.976;5.660;2023-09-18T00:42:31;15.38;;;8.45;;
34900;SDS011;21112;51.976;5.660;2023-09-18T00:44:58;18.25;;;8.18;;
34900;SDS011;21112;51.976;5.660;2023-09-18T00:47:25;14.75;;;8.63;;
34900;SDS011;21112;51.976;5.660;2023-09-18T00:49:51;15.50;;;7.72;;
34900;SDS011;21112;51.976;5.660;2023-09-18T00:52:19;18.95;;;8.15;;
34900;SDS011;21112;51.976;5.660;2023-09-18T00:54:46;14.02;;;7.28;;
34900;SDS011;21112;51.976;5.660;2023-09-18T00:57:14;17.25;;;7.65;;
34900;SDS011;21112;51.976;5.660;2023-09-18T00:59:42;16.10;;;7.95;;
34900;SDS011;21112;51.976;5.660;2023-09-18T01:02:09;15.20;;;7.38;;
34900;SDS011;21112;51.976;5.660;2023-09-18T01:04:36;16.63;;;7.55;;
34900;SDS011;21112;51.976;5.660;2023-09-18T01:07:09;13.32;;;7.53;;
34900;SDS011;21112;51.976;5.660;2023-09-18T01:09:36;13.77;;;7.30;;
34900;SDS011;21112;51.976;5.660;2023-09-18T01:12:04;17.67;;;7.80;;
34900;SDS011;21112;51.976;5.660;2023-09-18T01:14:39;17.58;;;8.18;;
34900;SDS011;21112;51.976;5.660;2023-09-18T01:17:10;16.25;;;8.13;;
34900;SDS011;21112;51.976;5.660;2023-09-18T01:19:39;13.63;;;7.70;;
34900;SDS011;21112;51.976;5.660;2023-09-18T01:22:09;14.48;;;7.65;;
34900;SDS011;21112;51.976;5.660;2023-09-18T01:24:38;14.70;;;7.97;;
34900;SDS011;21112;51.976;5.660;2023-09-18T01:27:07;16.67;;;7.78;;
34900;SDS011;21112;51.976;5.660;2023-09-18T01:29:34;17.77;;;8.20;;
34900;SDS011;21112;51.976;5.660;2023-09-18T01:32:01;14.48;;;7.90;;
34900;SDS011;21112;51.976;5.660;2023-09-18T01:34:30;18.85;;;8.27;;
34900;SDS011;21112;51.976;5.660;2023-09-18T01:37:01;17.45;;;7.80;;
34900;SDS011;21112;51.976;5.660;2023-09-18T01:39:29;16.05;;;7.28;;
34900;SDS011;21112;51.976;5.660;2023-09-18T01:41:59;21.42;;;7.55;;
34900;SDS011;21112;51.976;5.660;2023-09-18T01:44:27;14.27;;;7.38;;
34900;SDS011;21112;51.976;5.660;2023-09-18T01:46:54;18.27;;;8.18;;
34900;SDS011;21112;51.976;5.660;2023-09-18T01:49:27;14.77;;;7.75;;
34900;SDS011;21112;51.976;5.660;2023-09-18T01:51:55;17.88;;;8.15;;
34900;SDS011;21112;51.976;5.660;2023-09-18T01:54:21;19.42;;;7.88;;
34900;SDS011;21112;51.976;5.660;2023-09-18T01:56:48;18.67;;;7.35;;
34900;SDS011;21112;51.976;5.660;2023-09-18T01:59:16;16.90;;;8.98;;
34900;SDS011;21112;51.976;5.660;2023-09-18T02:01:43;16.95;;;6.90;;
34900;SDS011;21112;51.976;5.660;2023-09-18T02:04:10;14.68;;;8.02;;
34900;SDS011;21112;51.976;5.660;2023-09-18T02:06:36;16.90;;;8.73;;
34900;SDS011;21112;51.976;5.660;2023-09-18T02:09:03;15.63;;;8.00;;
34900;SDS011;21112;51.976;5.660;2023-09-18T02:11:30;15.02;;;7.80;;
34900;SDS011;21112;51.976;5.660;2023-09-18T02:13:56;18.85;;;9.18;;
34900;SDS011;21112;51.976;5.660;2023-09-18T02:16:24;15.65;;;8.73;;
34900;SDS011;21112;51.976;5.660;2023-09-18T02:18:53;19.38;;;8.23;;
34900;SDS011;21112;51.976;5.660;2023-09-18T02:21:20;18.25;;;8.65;;
34900;SDS011;21112;51.976;5.660;2023-09-18T02:23:49;16.98;;;8.02;;
34900;SDS011;21112;51.976;5.660;2023-09-18T02:26:16;15.52;;;7.40;;
34900;SDS011;21112;51.976;5.660;2023-09-18T02:28:42;21.15;;;7.75;;
34900;SDS011;21112;51.976;5.660;2023-09-18T02:31:09;17.05;;;8.30;;
34900;SDS011;21112;51.976;5.660;2023-09-18T02:33:37;20.80;;;9.38;;
34900;SDS011;21112;51.976;5.660;2023-09-18T02:38:31;14.52;;;7.38;;
34900;SDS011;21112;51.976;5.660;2023-09-18T02:40:58;17.95;;;8.68;;
34900;SDS011;21112;51.976;5.660;2023-09-18T02:43:25;16.92;;;8.10;;
34900;SDS011;21112;51.976;5.660;2023-09-18T02:45:51;14.05;;;7.90;;
34900;SDS011;21112;51.976;5.660;2023-09-18T02:48:18;18.58;;;8.32;;
34900;SDS011;21112;51.976;5.660;2023-09-18T02:50:47;17.67;;;7.88;;
34900;SDS011;21112;51.976;5.660;2023-09-18T02:53:16;17.25;;;8.65;;
34900;SDS011;21112;51.976;5.660;2023-09-18T02:55:44;14.63;;;7.72;;
34900;SDS011;21112;51.976;5.660;2023-09-18T02:58:11;15.55;;;7.85;;
34900;SDS011;21112;51.976;5.660;2023-09-18T03:00:40;14.15;;;7.78;;
34900;SDS011;21112;51.976;5.660;2023-09-18T03:03:08;14.95;;;8.02;;
34900;SDS011;21112;51.976;5.660;2023-09-18T03:05:35;16.42;;;8.13;;
34900;SDS011;21112;51.976;5.660;2023-09-18T03:08:03;13.15;;;7.13;;
34900;SDS011;21112;51.976;5.660;2023-09-18T03:10:32;16.05;;;7.45;;
34900;SDS011;21112;51.976;5.660;2023-09-18T03:13:02;14.05;;;7.68;;
34900;SDS011;21112;51.976;5.660;2023-09-18T03:15:29;14.30;;;7.07;;
34900;SDS011;21112;51.976;5.660;2023-09-18T03:17:56;16.30;;;7.53;;
34900;SDS011;21112;51.976;5.660;2023-09-18T03:20:24;14.25;;;6.38;;
34900;SDS011;21112;51.976;5.660;2023-09-18T03:22:51;12.43;;;7.15;;
34900;SDS011;21112;51.976;5.660;2023-09-18T03:25:21;13.02;;;6.90;;
34900;SDS011;21112;51.976;5.660;2023-09-18T03:27:48;15.90;;;6.18;;
34900;SDS011;21112;51.976;5.660;2023-09-18T03:30:15;17.47;;;6.97;;
34900;SDS011;21112;51.976;5.660;2023-09-18T03:32:42;13.20;;;6.28;;
34900;SDS011;21112;51.976;5.660;2023-09-18T03:35:09;12.57;;;6.22;;
34900;SDS011;21112;51.976;5.660;2023-09-18T03:37:42;18.58;;;6.90;;
34900;SDS011;21112;51.976;5.660;2023-09-18T03:40:09;10.70;;;5.95;;
34900;SDS011;21112;51.976;5.660;2023-09-18T03:42:38;17.42;;;7.25;;
34900;SDS011;21112;51.976;5.660;2023-09-18T03:45:05;18.10;;;8.05;;
34900;SDS011;21112;51.976;5.660;2023-09-18T03:47:33;14.48;;;8.10;;
34900;SDS011;21112;51.976;5.660;2023-09-18T03:50:00;18.20;;;7.97;;
34900;SDS011;21112;51.976;5.660;2023-09-18T03:52:26;21.80;;;8.43;;
34900;SDS011;21112;51.976;5.660;2023-09-18T03:54:53;17.30;;;7.85;;
34900;SDS011;21112;51.976;5.660;2023-09-18T03:57:20;15.57;;;8.18;;
34900;SDS011;21112;51.976;5.660;2023-09-18T03:59:48;17.10;;;7.88;;
34900;SDS011;21112;51.976;5.660;2023-09-18T04:02:15;14.05;;;7.45;;
34900;SDS011;21112;51.976;5.660;2023-09-18T04:04:41;14.65;;;8.15;;
34900;SDS011;21112;51.976;5.660;2023-09-18T04:07:08;15.95;;;9.18;;
34900;SDS011;21112;51.976;5.660;2023-09-18T04:09:35;20.98;;;9.23;;
34900;SDS011;21112;51.976;5.660;2023-09-18T04:12:02;13.68;;;8.00;;
34900;SDS011;21112;51.976;5.660;2023-09-18T04:16:58;12.65;;;7.53;;
34900;SDS011;21112;51.976;5.660;2023-09-18T04:19:26;14.55;;;7.50;;
34900;SDS011;21112;51.976;5.660;2023-09-18T04:21:54;22.30;;;8.23;;
34900;SDS011;21112;51.976;5.660;2023-09-18T04:24:21;15.55;;;7.85;;
34900;SDS011;21112;51.976;5.660;2023-09-18T04:26:48;18.75;;;7.68;;
34900;SDS011;21112;51.976;5.660;2023-09-18T04:29:16;18.75;;;8.07;;
34900;SDS011;21112;51.976;5.660;2023-09-18T04:31:43;13.68;;;7.10;;
34900;SDS011;21112;51.976;5.660;2023-09-18T04:34:11;13.57;;;6.45;;
34900;SDS011;21112;51.976;5.660;2023-09-18T04:36:38;19.65;;;9.50;;
34900;SDS011;21112;51.976;5.660;2023-09-18T04:39:05;32.10;;;19.05;;
34900;SDS011;21112;51.976;5.660;2023-09-18T04:41:32;22.40;;;10.15;;
34900;SDS011;21112;51.976;5.660;2023-09-18T04:43:59;14.63;;;7.00;;
34900;SDS011;21112;51.976;5.660;2023-09-18T04:46:25;23.23;;;7.65;;
34900;SDS011;21112;51.976;5.660;2023-09-18T04:48:52;16.67;;;7.78;;
34900;SDS011;21112;51.976;5.660;2023-09-18T04:51:20;18.02;;;8.73;;
34900;SDS011;21112;51.976;5.660;2023-09-18T04:53:46;17.60;;;7.95;;
34900;SDS011;21112;51.976;5.660;2023-09-18T04:56:13;15.55;;;7.25;;
34900;SDS011;21112;51.976;5.660;2023-09-18T04:58:40;18.27;;;6.43;;
34900;SDS011;21112;51.976;5.660;2023-09-18T05:01:06;18.20;;;8.68;;
34900;SDS011;21112;51.976;5.660;2023-09-18T05:03:33;17.33;;;6.78;;
34900;SDS011;21112;51.976;5.660;2023-09-18T05:06:00;17.70;;;6.40;;
34900;SDS011;21112;51.976;5.660;2023-09-18T05:08:29;12.85;;;5.65;;
34900;SDS011;21112;51.976;5.660;2023-09-18T05:10:56;14.00;;;5.45;;
34900;SDS011;21112;51.976;5.660;2023-09-18T05:13:23;16.88;;;6.25;;
34900;SDS011;21112;51.976;5.660;2023-09-18T05:15:50;9.98;;;5.40;;
34900;SDS011;21112;51.976;5.660;2023-09-18T05:18:16;10.45;;;5.50;;
34900;SDS011;21112;51.976;5.660;2023-09-18T05:20:43;16.25;;;6.05;;
34900;SDS011;21112;51.976;5.660;2023-09-18T05:23:10;18.10;;;6.20;;
34900;SDS011;21112;51.976;5.660;2023-09-18T05:25:38;12.57;;;6.22;;
34900;SDS011;21112;51.976;5.660;2023-09-18T05:28:07;20.70;;;10.27;;
34900;SDS011;21112;51.976;5.660;2023-09-18T05:30:34;15.45;;;8.15;;
34900;SDS011;21112;51.976;5.660;2023-09-18T05:33:04;12.35;;;6.03;;
34900;SDS011;21112;51.976;5.660;2023-09-18T05:35:32;11.10;;;6.22;;
34900;SDS011;21112;51.976;5.660;2023-09-18T05:37:59;10.90;;;5.55;;
34900;SDS011;21112;51.976;5.660;2023-09-18T05:40:26;11.18;;;5.57;;
34900;SDS011;21112;51.976;5.660;2023-09-18T05:42:55;12.02;;;6.32;;
34900;SDS011;21112;51.976;5.660;2023-09-18T05:45:22;13.48;;;5.80;;
34900;SDS011;21112;51.976;5.660;2023-09-18T05:47:49;11.35;;;5.72;;
34900;SDS011;21112;51.976;5.660;2023-09-18T05:50:18;10.52;;;5.18;;
34900;SDS011;21112;51.976;5.660;2023-09-18T05:52:45;13.32;;;6.25;;
34900;SDS011;21112;51.976;5.660;2023-09-18T05:55:13;14.60;;;5.60;;
34900;SDS011;21112;51.976;5.660;2023-09-18T05:57:40;12.88;;;5.53;;
34900;SDS011;21112;51.976;5.660;2023-09-18T06:00:09;12.77;;;5.65;;
34900;SDS011;21112;51.976;5.660;2023-09-18T06:02:38;12.30;;;5.45;;
34900;SDS011;21112;51.976;5.660;2023-09-18T06:05:05;10.93;;;5.50;;
34900;SDS011;21112;51.976;5.660;2023-09-18T06:07:33;11.23;;;5.72;;
34900;SDS011;21112;51.976;5.660;2023-09-18T06:10:00;14.25;;;5.63;;
34900;SDS011;21112;51.976;5.660;2023-09-18T06:12:27;16.80;;;5.53;;
34900;SDS011;21112;51.976;5.660;2023-09-18T06:14:53;12.38;;;5.50;;
34900;SDS011;21112;51.976;5.660;2023-09-18T06:17:21;15.30;;;5.70;;
34900;SDS011;21112;51.976;5.660;2023-09-18T06:19:50;15.18;;;5.22;;
34900;SDS011;21112;51.976;5.660;2023-09-18T06:22:17;11.15;;;5.57;;
34900;SDS011;21112;51.976;5.660;2023-09-18T06:24:44;20.08;;;6.35;;
34900;SDS011;21112;51.976;5.660;2023-09-18T06:27:10;14.27;;;5.70;;
34900;SDS011;21112;51.976;5.660;2023-09-18T06:29:37;14.35;;;5.80;;
34900;SDS011;21112;51.976;5.660;2023-09-18T06:32:04;12.13;;;5.63;;
34900;SDS011;21112;51.976;5.660;2023-09-18T06:34:33;12.80;;;5.53;;
34900;SDS011;21112;51.976;5.660;2023-09-18T06:37:00;14.85;;;6.25;;
34900;SDS011;21112;51.976;5.660;2023-09-18T06:39:28;16.40;;;5.90;;
34900;SDS011;21112;51.976;5.660;2023-09-18T06:41:57;14.55;;;6.80;;
34900;SDS011;21112;51.976;5.660;2023-09-18T06:44:24;14.57;;;6.35;;
34900;SDS011;21112;51.976;5.660;2023-09-18T06:46:51;13.52;;;5.70;;
34900;SDS011;21112;51.976;5.660;2023-09-18T06:49:18;10.70;;;4.63;;
34900;SDS011;21112;51.976;5.660;2023-09-18T06:51:47;10.65;;;4.60;;
34900;SDS011;21112;51.976;5.660;2023-09-18T06:54:13;13.90;;;5.13;;
34900;SDS011;21112;51.976;5.660;2023-09-18T06:56:40;14.60;;;4.95;;
34900;SDS011;21112;51.976;5.660;2023-09-18T06:59:09;9.90;;;4.82;;
34900;SDS011;21112;51.976;5.660;2023-09-18T07:01:36;12.38;;;4.68;;
34900;SDS011;21112;51.976;5.660;2023-09-18T07:04:04;11.27;;;4.10;;
34900;SDS011;21112;51.976;5.660;2023-09-18T07:06:31;8.80;;;4.38;;
34900;SDS011;21112;51.976;5.660;2023-09-18T07:11:29;13.25;;;4.38;;
34900;SDS011;21112;51.976;5.660;2023-09-18T07:13:56;8.57;;;3.90;;
34900;SDS011;21112;51.976;5.660;2023-09-18T07:16:23;8.75;;;3.63;;
34900;SDS011;21112;51.976;5.660;2023-09-18T07:18:49;10.07;;;4.72;;
34900;SDS011;21112;51.976;5.660;2023-09-18T07:21:16;8.32;;;3.83;;
34900;SDS011;21112;51.976;5.660;2023-09-18T07:23:43;9.68;;;3.65;;
34900;SDS011;21112;51.976;5.660;2023-09-18T07:26:12;7.30;;;3.60;;
34900;SDS011;21112;51.976;5.660;2023-09-18T07:28:38;7.55;;;3.90;;
34900;SDS011;21112;51.976;5.660;2023-09-18T07:31:07;6.80;;;3.35;;
34900;SDS011;21112;51.976;5.660;2023-09-18T07:33:34;8.55;;;3.40;;
34900;SDS011;21112;51.976;5.660;2023-09-18T07:36:01;5.88;;;2.67;;
34900;SDS011;21112;51.976;5.660;2023-09-18T07:38:28;9.85;;;4.13;;
34900;SDS011;21112;51.976;5.660;2023-09-18T07:40:55;10.75;;;3.58;;
34900;SDS011;21112;51.976;5.660;2023-09-18T07:43:24;9.93;;;4.10;;
34900;SDS011;21112;51.976;5.660;2023-09-18T07:48:17;7.13;;;3.08;;
34900;SDS011;21112;51.976;5.660;2023-09-18T07:50:45;9.98;;;3.00;;
34900;SDS011;21112;51.976;5.660;2023-09-18T07:53:14;8.95;;;3.58;;
34900;SDS011;21112;51.976;5.660;2023-09-18T07:55:41;7.10;;;3.20;;
34900;SDS011;21112;51.976;5.660;2023-09-18T07:58:07;9.18;;;3.88;;
34900;SDS011;21112;51.976;5.660;2023-09-18T08:00:36;8.52;;;3.13;;
34900;SDS011;21112;51.976;5.660;2023-09-18T08:03:03;11.63;;;3.28;;
34900;SDS011;21112;51.976;5.660;2023-09-18T08:05:29;7.38;;;3.55;;
34900;SDS011;21112;51.976;5.660;2023-09-18T08:07:56;8.40;;;3.80;;
34900;SDS011;21112;51.976;5.660;2023-09-18T08:10:24;11.20;;;6.30;;
34900;SDS011;21112;51.976;5.660;2023-09-18T08:12:51;8.77;;;3.35;;
34900;SDS011;21112;51.976;5.660;2023-09-18T08:15:19;12.75;;;3.60;;
34900;SDS011;21112;51.976;5.660;2023-09-18T08:17:47;7.50;;;3.40;;
34900;SDS011;21112;51.976;5.660;2023-09-18T08:20:14;8.20;;;3.25;;
34900;SDS011;21112;51.976;5.660;2023-09-18T08:22:43;5.95;;;3.08;;
34900;SDS011;21112;51.976;5.660;2023-09-18T08:25:11;8.07;;;3.05;;
34900;SDS011;21112;51.976;5.660;2023-09-18T08:27:40;4.90;;;2.53;;
34900;SDS011;21112;51.976;5.660;2023-09-18T08:30:09;6.40;;;2.88;;
34900;SDS011;21112;51.976;5.660;2023-09-18T08:32:36;7.10;;;2.43;;
34900;SDS011;21112;51.976;5.660;2023-09-18T08:35:05;9.70;;;2.78;;
34900;SDS011;21112;51.976;5.660;2023-09-18T08:37:35;5.70;;;2.58;;
34900;SDS011;21112;51.976;5.660;2023-09-18T08:40:02;4.22;;;2.33;;
34900;SDS011;21112;51.976;5.660;2023-09-18T08:42:35;6.75;;;2.47;;
34900;SDS011;21112;51.976;5.660;2023-09-18T08:45:05;5.13;;;2.33;;
34900;SDS011;21112;51.976;5.660;2023-09-18T08:47:35;7.75;;;2.88;;
34900;SDS011;21112;51.976;5.660;2023-09-18T08:50:06;10.07;;;2.05;;
34900;SDS011;21112;51.976;5.660;2023-09-18T08:52:35;3.95;;;1.80;;
34900;SDS011;21112;51.976;5.660;2023-09-18T08:55:02;6.78;;;2.40;;
34900;SDS011;21112;51.976;5.660;2023-09-18T08:57:30;3.70;;;1.80;;
34900;SDS011;21112;51.976;5.660;2023-09-18T08:59:58;4.00;;;1.95;;
34900;SDS011;21112;51.976;5.660;2023-09-18T09:02:32;5.35;;;1.98;;
34900;SDS011;21112;51.976;5.660;2023-09-18T09:04:58;5.00;;;1.83;;
34900;SDS011;21112;51.976;5.660;2023-09-18T09:07:26;5.15;;;1.95;;
34900;SDS011;21112;51.976;5.660;2023-09-18T09:09:57;4.05;;;1.90;;
34900;SDS011;21112;51.976;5.660;2023-09-18T09:15:16;6.28;;;1.88;;
34900;SDS011;21112;51.976;5.660;2023-09-18T09:17:43;3.47;;;1.88;;
34900;SDS011;21112;51.976;5.660;2023-09-18T09:20:10;10.02;;;1.95;;
34900;SDS011;21112;51.976;5.660;2023-09-18T09:22:42;4.03;;;1.95;;
34900;SDS011;21112;51.976;5.660;2023-09-18T09:27:56;4.97;;;1.80;;
34900;SDS011;21112;51.976;5.660;2023-09-18T09:30:25;6.07;;;3.00;;
34900;SDS011;21112;51.976;5.660;2023-09-18T09:32:53;11.05;;;2.55;;
34900;SDS011;21112;51.976;5.660;2023-09-18T09:35:21;6.93;;;1.75;;
34900;SDS011;21112;51.976;5.660;2023-09-18T09:37:50;4.25;;;1.83;;
34900;SDS011;21112;51.976;5.660;2023-09-18T09:40:19;5.70;;;1.50;;
34900;SDS011;21112;51.976;5.660;2023-09-18T09:42:46;7.30;;;1.85;;
34900;SDS011;21112;51.976;5.660;2023-09-18T09:45:14;3.88;;;1.80;;
34900;SDS011;21112;51.976;5.660;2023-09-18T09:47:41;4.88;;;1.77;;
34900;SDS011;21112;51.976;5.660;2023-09-18T09:50:09;4.30;;;1.70;;
34900;SDS011;21112;51.976;5.660;2023-09-18T09:52:41;6.35;;;1.73;;
34900;SDS011;21112;51.976;5.660;2023-09-18T09:57:58;4.20;;;1.90;;
34900;SDS011;21112;51.976;5.660;2023-09-18T10:00:27;5.00;;;2.05;;
34900;SDS011;21112;51.976;5.660;2023-09-18T10:03:02;7.70;;;1.90;;
34900;SDS011;21112;51.976;5.660;2023-09-18T10:05:31;5.03;;;1.80;;
34900;SDS011;21112;51.976;5.660;2023-09-18T10:08:00;7.38;;;2.08;;
34900;SDS011;21112;51.976;5.660;2023-09-18T10:10:33;4.82;;;1.65;;
34900;SDS011;21112;51.976;5.660;2023-09-18T10:13:09;6.78;;;1.67;;
34900;SDS011;21112;51.976;5.660;2023-09-18T10:15:42;15.20;;;1.90;;
34900;SDS011;21112;51.976;5.660;2023-09-18T10:18:15;6.68;;;1.90;;
34900;SDS011;21112;51.976;5.660;2023-09-18T10:20:44;5.28;;;1.75;;
34900;SDS011;21112;51.976;5.660;2023-09-18T10:23:17;2.90;;;1.33;;
34900;SDS011;21112;51.976;5.660;2023-09-18T10:25:55;6.18;;;1.73;;
34900;SDS011;21112;51.976;5.660;2023-09-18T10:28:28;3.92;;;1.92;;
34900;SDS011;21112;51.976;5.660;2023-09-18T10:33:24;7.55;;;1.65;;
34900;SDS011;21112;51.976;5.660;2023-09-18T10:35:53;5.82;;;2.03;;
34900;SDS011;21112;51.976;5.660;2023-09-18T10:38:20;5.60;;;1.80;;
34900;SDS011;21112;51.976;5.660;2023-09-18T10:40:47;4.47;;;1.77;;
34900;SDS011;21112;51.976;5.660;2023-09-18T10:43:18;5.03;;;2.00;;
34900;SDS011;21112;51.976;5.660;2023-09-18T10:45:45;5.43;;;2.17;;
34900;SDS011;21112;51.976;5.660;2023-09-18T10:48:13;5.43;;;1.92;;
34900;SDS011;21112;51.976;5.660;2023-09-18T10:50:42;4.43;;;1.88;;
34900;SDS011;21112;51.976;5.660;2023-09-18T10:53:10;6.10;;;2.38;;
34900;SDS011;21112;51.976;5.660;2023-09-18T10:55:38;7.68;;;2.97;;
34900;SDS011;21112;51.976;5.660;2023-09-18T10:58:04;7.35;;;2.88;;
34900;SDS011;21112;51.976;5.660;2023-09-18T11:00:33;7.85;;;3.13;;
34900;SDS011;21112;51.976;5.660;2023-09-18T11:03:10;7.25;;;2.13;;
34900;SDS011;21112;51.976;5.660;2023-09-18T11:05:43;6.63;;;1.98;;
34900;SDS011;21112;51.976;5.660;2023-09-18T11:08:26;14.85;;;2.38;;
34900;SDS011;21112;51.976;5.660;2023-09-18T11:10:55;7.38;;;2.15;;
34900;SDS011;21112;51.976;5.660;2023-09-18T11:13:31;7.55;;;2.38;;
34900;SDS011;21112;51.976;5.660;2023-09-18T11:16:02;10.02;;;2.15;;
34900;SDS011;21112;51.976;5.660;2023-09-18T11:18:40;9.45;;;2.42;;
34900;SDS011;21112;51.976;5.660;2023-09-18T11:21:08;7.40;;;2.07;;
34900;SDS011;21112;51.976;5.660;2023-09-18T11:23:37;6.45;;;2.30;;
34900;SDS011;21112;51.976;5.660;2023-09-18T11:26:08;6.95;;;2.50;;
34900;SDS011;21112;51.976;5.660;2023-09-18T11:28:41;4.97;;;1.90;;
34900;SDS011;21112;51.976;5.660;2023-09-18T11:34:13;11.65;;;2.22;;
34900;SDS011;21112;51.976;5.660;2023-09-18T11:36:43;9.38;;;2.28;;
34900;SDS011;21112;51.976;5.660;2023-09-18T11:39:10;4.88;;;2.00;;
34900;SDS011;21112;51.976;5.660;2023-09-18T11:41:38;6.18;;;1.92;;
34900;SDS011;21112;51.976;5.660;2023-09-18T11:47:09;4.05;;;2.00;;
34900;SDS011;21112;51.976;5.660;2023-09-18T11:49:45;4.80;;;1.98;;
34900;SDS011;21112;51.976;5.660;2023-09-18T11:52:14;4.93;;;1.90;;
34900;SDS011;21112;51.976;5.660;2023-09-18T11:54:42;3.45;;;1.80;;
34900;SDS011;21112;51.976;5.660;2023-09-18T11:57:12;4.90;;;2.35;;
34900;SDS011;21112;51.976;5.660;2023-09-18T11:59:39;9.73;;;2.47;;
34900;SDS011;21112;51.976;5.660;2023-09-18T12:02:09;8.65;;;2.45;;
34900;SDS011;21112;51.976;5.660;2023-09-18T12:07:14;4.68;;;1.88;;
34900;SDS011;21112;51.976;5.660;2023-09-18T12:09:41;7.90;;;2.15;;
34900;SDS011;21112;51.976;5.660;2023-09-18T12:12:08;4.88;;;1.90;;
34900;SDS011;21112;51.976;5.660;2023-09-18T12:14:35;5.47;;;1.80;;
34900;SDS011;21112;51.976;5.660;2023-09-18T12:19:51;9.85;;;2.00;;
34900;SDS011;21112;51.976;5.660;2023-09-18T12:22:23;8.55;;;1.88;;
34900;SDS011;21112;51.976;5.660;2023-09-18T12:25:07;6.30;;;1.88;;
34900;SDS011;21112;51.976;5.660;2023-09-18T12:27:36;4.70;;;1.90;;
34900;SDS011;21112;51.976;5.660;2023-09-18T12:30:08;7.95;;;2.25;;
34900;SDS011;21112;51.976;5.660;2023-09-18T12:32:58;8.20;;;1.83;;
34900;SDS011;21112;51.976;5.660;2023-09-18T12:35:29;6.40;;;2.17;;
34900;SDS011;21112;51.976;5.660;2023-09-18T12:38:12;6.50;;;2.25;;
34900;SDS011;21112;51.976;5.660;2023-09-18T12:40:40;7.57;;;1.92;;
34900;SDS011;21112;51.976;5.660;2023-09-18T12:43:06;6.55;;;2.25;;
34900;SDS011;21112;51.976;5.660;2023-09-18T12:45:34;5.07;;;2.22;;
34900;SDS011;21112;51.976;5.660;2023-09-18T12:48:03;5.53;;;1.90;;
34900;SDS011;21112;51.976;5.660;2023-09-18T12:50:33;6.00;;;1.77;;
34900;SDS011;21112;51.976;5.660;2023-09-18T12:53:07;6.53;;;1.90;;
34900;SDS011;21112;51.976;5.660;2023-09-18T12:55:46;5.50;;;2.13;;
34900;SDS011;21112;51.976;5.660;2023-09-18T12:58:13;8.02;;;2.13;;
34900;SDS011;21112;51.976;5.660;2023-09-18T13:00:47;5.63;;;1.92;;
34900;SDS011;21112;51.976;5.660;2023-09-18T13:03:42;4.82;;;1.67;;
34900;SDS011;21112;51.976;5.660;2023-09-18T13:06:12;5.03;;;2.03;;
34900;SDS011;21112;51.976;5.660;2023-09-18T13:09:01;4.30;;;2.00;;
34900;SDS011;21112;51.976;5.660;2023-09-18T13:12:11;5.60;;;2.03;;
34900;SDS011;21112;51.976;5.660;2023-09-18T13:14:58;4.15;;;1.70;;
34900;SDS011;21112;51.976;5.660;2023-09-18T13:17:39;6.50;;;2.80;;
34900;SDS011;21112;51.976;5.660;2023-09-18T13:20:17;8.73;;;3.60;;
34900;SDS011;21112;51.976;5.660;2023-09-18T13:22:50;4.70;;;1.77;;
34900;SDS011;21112;51.976;5.660;2023-09-18T13:25:25;5.07;;;1.83;;
34900;SDS011;21112;51.976;5.660;2023-09-18T13:27:55;4.15;;;1.83;;
34900;SDS011;21112;51.976;5.660;2023-09-18T13:30:25;4.07;;;1.70;;
34900;SDS011;21112;51.976;5.660;2023-09-18T13:33:15;4.10;;;1.73;;
34900;SDS011;21112;51.976;5.660;2023-09-18T13:35:48;5.65;;;2.00;;
34900;SDS011;21112;51.976;5.660;2023-09-18T13:38:18;4.45;;;1.90;;
34900;SDS011;21112;51.976;5.660;2023-09-18T13:40:53;9.13;;;1.70;;
34900;SDS011;21112;51.976;5.660;2023-09-18T13:43:21;5.05;;;1.85;;
34900;SDS011;21112;51.976;5.660;2023-09-18T13:45:52;4.05;;;1.65;;
34900;SDS011;21112;51.976;5.660;2023-09-18T13:48:26;6.43;;;1.98;;
34900;SDS011;21112;51.976;5.660;2023-09-18T13:50:59;6.57;;;1.75;;
34900;SDS011;21112;51.976;5.660;2023-09-18T13:53:33;3.70;;;1.52;;
34900;SDS011;21112;51.976;5.660;2023-09-18T13:56:01;8.88;;;1.63;;
34900;SDS011;21112;51.976;5.660;2023-09-18T13:58:46;8.50;;;1.63;;
34900;SDS011;21112;51.976;5.660;2023-09-18T14:01:34;4.35;;;1.80;;
34900;SDS011;21112;51.976;5.660;2023-09-18T14:04:08;4.15;;;1.67;;
34900;SDS011;21112;51.976;5.660;2023-09-18T14:09:40;4.22;;;1.50;;
34900;SDS011;21112;51.976;5.660;2023-09-18T14:12:11;6.03;;;1.70;;
34900;SDS011;21112;51.976;5.660;2023-09-18T14:14:47;4.88;;;1.70;;
34900;SDS011;21112;51.976;5.660;2023-09-18T14:17:30;4.95;;;1.50;;
34900;SDS011;21112;51.976;5.660;2023-09-18T14:19:59;7.97;;;1.52;;
34900;SDS011;21112;51.976;5.660;2023-09-18T14:25:39;6.80;;;2.00;;
34900;SDS011;21112;51.976;5.660;2023-09-18T14:28:08;3.13;;;1.50;;
34900;SDS011;21112;51.976;5.660;2023-09-18T14:30:38;4.45;;;1.33;;
34900;SDS011;21112;51.976;5.660;2023-09-18T14:33:21;4.25;;;1.55;;
34900;SDS011;21112;51.976;5.660;2023-09-18T14:35:51;3.72;;;1.60;;
34900;SDS011;21112;51.976;5.660;2023-09-18T14:38:24;8.93;;;1.58;;
34900;SDS011;21112;51.976;5.660;2023-09-18T14:41:07;2.70;;;1.30;;
34900;SDS011;21112;51.976;5.660;2023-09-18T14:43:38;8.98;;;1.40;;
34900;SDS011;21112;51.976;5.660;2023-09-18T14:46:08;4.55;;;1.20;;
34900;SDS011;21112;51.976;5.660;2023-09-18T14:48:50;3.63;;;1.20;;
34900;SDS011;21112;51.976;5.660;2023-09-18T14:51:17;2.88;;;1.35;;
34900;SDS011;21112;51.976;5.660;2023-09-18T14:53:51;7.15;;;2.05;;
34900;SDS011;21112;51.976;5.660;2023-09-18T14:56:26;4.43;;;1.67;;
34900;SDS011;21112;51.976;5.660;2023-09-18T14:58:53;7.53;;;2.03;;
34900;SDS011;21112;51.976;5.660;2023-09-18T15:01:21;4.50;;;1.47;;
34900;SDS011;21112;51.976;5.660;2023-09-18T15:03:53;4.00;;;1.73;;
34900;SDS011;21112;51.976;5.660;2023-09-18T15:06:21;2.60;;;1.40;;
34900;SDS011;21112;51.976;5.660;2023-09-18T15:08:50;4.35;;;1.38;;
34900;SDS011;21112;51.976;5.660;2023-09-18T15:11:19;13.45;;;1.98;;
34900;SDS011;21112;51.976;5.660;2023-09-18T15:13:47;4.30;;;1.35;;
34900;SDS011;21112;51.976;5.660;2023-09-18T15:16:13;4.13;;;1.30;;
34900;SDS011;21112;51.976;5.660;2023-09-18T15:18:40;4.22;;;1.50;;
34900;SDS011;21112;51.976;5.660;2023-09-18T15:21:19;4.28;;;1.33;;
34900;SDS011;21112;51.976;5.660;2023-09-18T15:23:46;4.28;;;0.95;;
34900;SDS011;21112;51.976;5.660;2023-09-18T15:26:16;13.60;;;1.10;;
34900;SDS011;21112;51.976;5.660;2023-09-18T15:28:43;4.18;;;0.68;;
34900;SDS011;21112;51.976;5.660;2023-09-18T15:31:16;1.10;;;0.40;;